x

Nantucket 54nm Southeast Of Nantucket (44008) Wave Buoy

4:50am - Thu 25th Aug 2016 All times are EDT. -4 hours from GMT.

  • Sig Wave height 2.3ft
  • Swell Direction
  • Peak Period 10s
  • Average Period 5s
  • Wind
    9mph
  • Sea Temp 69°f
  • Air Temp 71°f
  • Sea Pressure 1022.2mb
  • Nantucket 54nm Southeast Of Nantucket
  • Nantucket 54nm Southeast Of Nantucket

More Historic Weather Station data

Upgrade to MSW Pro to gain access to the past 30 days of data for over 8000 Wavebouys and Weather Stations around the globe.

Join Pro

Comparision Forecast

View Surf forecast
   
Thu 08/25 4:50am 2.5ft 10s 5s 9
mph
1022.2mb 69f 71f
3:50am 2ft 11s 5s 9 11 mph 1022.1mb 69f 70f
2:50am 2.5ft 10s 5s 11
mph
1021.9mb 69f 71f
1:50am 2.5ft 10s 6s 9 11 mph 1022.4mb 69f 71f
12:50am 2ft 10s 6s 11
mph
1022.4mb 69f 70f
Wed 08/24 10:50pm 2ft 10s 6s 9 11 mph 1023.6mb 69f 71f
9:50pm 2.5ft 11s 6s 7 9 mph 1024mb 69f 71f
8:50pm 2ft 10s 5s 7 9 mph 1024mb 70f 71f
7:50pm 2.5ft 11s 6s 9
mph
1023.6mb 70f 71f
6:50pm 2ft 11s 5s 9 11 mph 1023.5mb 70f 71f
5:50pm 1.6ft 11s 5s 7 9 mph 1023.6mb 70f 72f
4:50pm 2ft 11s 5s 7
mph
1024mb 70f 72f
3:50pm 2ft 11s 5s 9
mph
1024.3mb 70f 72f
2:50pm 1.6ft 11s 5s 9
mph
1024.6mb 70f 71f
1:50pm 1.6ft 11s 6s 11 13 mph 1024.9mb 70f 71f
12:50pm 2ft 11s 6s 9 11 mph 1025.1mb 69f 71f
11:50am 2ft 11s 6s 7 9 mph 1025.5mb 69f 70f
10:50am 2ft 11s 6s 9
mph
1025.8mb 69f 70f
9:50am 2ft 12s 6s 7 9 mph 1025.9mb 69f 70f
8:50am 2ft 12s 6s 7 9 mph 1025.8mb 69f 70f
7:50am 1.6ft 12s 6s 7 9 mph 1025.5mb 69f 70f
6:50am 1.6ft 12s 6s 9
mph
1025.3mb 68f 70f
5:50am 2ft 12s 6s 9 11 mph 1025.2mb 69f 70f
4:50am 2ft 8s 6s 9
mph
1025.2mb 69f 70f
3:50am 2ft 7s 6s 9 11 mph 1025.1mb 69f 69f
2:50am 2ft 8s 6s 9 11 mph 1025.2mb 68f 69f
1:50am 2ft 9s 6s 7 9 mph 1025.3mb 69f 69f
12:50am 2.5ft 7s 6s 7 9 mph 1025.5mb 69f 69f
Tue 08/23 11:50pm 2.5ft 10s 6s 7 9 mph 1025.4mb 69f 69f
10:50pm 2.5ft 5s 5s 7 9 mph 1025.5mb 69f 69f
9:50pm 2.5ft 8s 5s 7 9 mph 1025.4mb 69f 69f
8:50pm 3ft 5s 5s 7
mph
1025.6mb 69f 69f
7:50pm 2.5ft 5s 5s 7
mph
1025.3mb 70f 69f
6:50pm 2.5ft 6s 5s 4 7 mph 1025mb 71f 70f
5:50pm 2.5ft 6s 5s 4 7 mph 1024.8mb 72f 70f
4:50pm 2.5ft 6s 5s 7 9 mph 1024.9mb 72f 69f
3:50pm 2.5ft 8s 6s 7 9 mph 1024.8mb 71f 68f
2:50pm 3ft 8s 6s 7
mph
1025mb 71f 68f
1:50pm 3ft 7s 6s 4 7 mph 1025.5mb 70f 67f
12:50pm 3.5ft 7s 6s 7
mph
1025.7mb 68f 67f
11:50am 3.5ft 7s 5s 9 11 mph 1025.8mb 68f 66f
10:50am 4ft 7s 5s 11 13 mph 1025.7mb 68f 66f
9:50am 4.5ft 7s 5s 13 16 mph 1025.2mb 67f 65f
8:50am 4.5ft 6s 5s 13 16 mph 1024.4mb 67f 65f
7:50am 4.5ft 7s 5s 16 18 mph 1023.8mb 69f 66f
6:50am 4.5ft 6s 5s 18 20 mph 1023mb 70f 66f
4:50am 5ft 6s 5s 18 20 mph 1021.4mb 71f 67f
3:50am 5ft 7s 5s 20 22 mph 1020.8mb 71f 67f
2:50am 5ft 8s 5s 20 22 mph 1020.6mb 72f 67f
1:50am 4.5ft 6s 5s 20 27 mph 1020.2mb 72f 68f
12:50am 4.5ft 6s 5s 20 25 mph 1020.2mb 71f 68f
Mon 08/22 11:50pm 4.5ft 7s 5s 22 27 mph 1019.6mb 71f 68f
10:50pm 4.5ft 6s 5s 18 22 mph 1019mb 71f 69f
9:50pm 4.5ft 6s 6s 18 22 mph 1018.2mb 71f 69f
8:50pm 3.5ft 6s 6s 16 20 mph 1017mb 72f 71f
7:50pm 3.5ft 5s 6s 9 11 mph 1015.6mb 73f 70f
6:50pm 4ft 6s 5s 9 11 mph 1014.3mb 73f 71f
5:50pm 3.5ft 5s 5s 7 9 mph 1013.6mb 71f 72f
4:50pm 3.5ft 7s 5s 9
mph
1013mb 70f 71f
3:50pm 3.5ft 10s 5s 11 13 mph 1012.4mb 73f 71f
2:50pm 3.5ft 10s 5s 13 18 mph 1011.8mb 73f 71f
1:50pm 3.5ft 10s 5s 16 18 mph 1011.3mb 73f 71f
12:50pm 3ft 8s 5s 18 20 mph 1010.9mb 72f 70f
11:50am 3ft 6s 5s 18 20 mph 1010.4mb 72f 70f
10:50am 3ft 14s 6s 13 16 mph 1009.7mb 73f 73f
9:50am 2.5ft 7s 5s 7
mph
1009.5mb 73f 74f
8:50am 2.5ft 13s 6s 9 13 mph 1009.1mb 73f 76f
7:50am 2.5ft 8s 6s 9
mph
1008.9mb 73f 74f
6:50am 2.5ft 8s 6s 9 11 mph 1008.7mb 71f 74f
5:50am 2.5ft 13s 6s 9
mph
1008.8mb 71f 73f
4:50am 2.5ft 7s 6s 9 11 mph 1008.8mb 72f 74f
3:50am 2.5ft 14s 5s 9 11 mph 1009.3mb 73f 73f
2:50am 2.5ft 14s 5s 11
mph
1009.6mb 73f 74f
1:50am 2.5ft 14s 5s 9 11 mph 1009.9mb 73f 73f
12:50am 2.5ft 14s 5s 9 11 mph 1010.2mb 73f 74f
Sun 08/21 10:50pm 3ft 5s 5s 9 11 mph 1011mb 73f 74f
9:50pm 2.5ft 4s 5s 7 9 mph 1011.5mb 73f 74f
8:50pm 2.5ft 7s 5s 7 9 mph 1011.8mb 73f 74f
7:50pm 3ft 5s 5s 9 11 mph 1011.4mb 73f 74f
6:50pm 2.5ft 14s 5s 9
mph
1011.3mb 74f 74f
5:50pm 2.5ft 14s 5s 7 9 mph 1011.3mb 73f 74f
4:50pm 2.5ft 8s 5s 9 11 mph 1011.4mb 73f 73f
3:50pm 2.5ft 14s 5s 11 13 mph 1011.7mb 72f 73f
2:50pm 2.5ft 8s 5s 11 13 mph 1012.4mb 72f 72f
1:50pm 2.5ft 8s 5s 11 13 mph 1012.9mb 72f 72f
12:50pm 2.5ft 8s 5s 11 13 mph 1013.4mb 72f 71f
11:50am 2.5ft 14s 5s 13 16 mph 1013.5mb 72f 71f
10:50am 2.5ft 8s 4s 13 16 mph 1014mb 73f 70f
9:50am 2.5ft 4s 4s 16 18 mph 1014.1mb 73f 69f